Clackamas, Oregon
Current Conditions -  °F | °C
As of 8:53 PM on Sunday 19 Oct 2014 (Local Time) from KTTD Reporting Station
Clear Clear  
Wind Chill: 61°   Ceiling: Unl
Heat Index: 61°   Visibility: 10mi
Dew Point: 55°   Wind: 6mph
Humidity: 81%   Direction: 120°ESE
Pressure: 29.68"   Gusts: NA
Location:  45.41°N, 122.55°W
Report Text: KTTD 200353Z 12005KT 10SM CLR 16/13 A2968 RMK AO2 SLP052 T01610128
Loading
Personal Weather Stations






























Interactive Weather Map
Tropical Storm Tracking
New forecast layout! Learn more

10-Day Weather Forecast

Advertisements
Track Severe Weather on mobile